AirNav   TITAN Aviation Fuels
 
 1518 users online  

77KS Riverbend Ranch Airport
Augusta, Kansas, USA

GOING TO AUGUSTA?


FAA INFORMATION EFFECTIVE 15 JULY 2021

Location

FAA Identifier: 77KS
Lat/Long: 37-38-50.9500N 096-50-29.2300W
37-38.849167N 096-50.487167W
37.6474861,-96.8414528
(estimated)
Elevation: 1272 ft. / 388 m (estimated)
From city: 7 miles SE of AUGUSTA, KS
Time zone: UTC -5 (UTC -6 during Standard Time)
Zip code: 67074

Airport Operations

Airport use: Private use. Permission required prior to landing
Activation date: 02/2016
Control tower: no
ARTCC: KANSAS CITY CENTER
FSS: WICHITA FLIGHT SERVICE STATION
Attendance: 
Segmented circle: no

Airport Communications

WX AWOS-3P at EQA (8 nm N): 120.875 (316-322-8095)
WX AWOS-3PT at 3AU (11 nm W): 124.175 (316-733-6696)
WX AWOS-3 at 1K1 (15 nm NW): 118.3 (316-530-6004)
WX AWOS-3PT at BEC (18 nm W): 119.45 (316-515-7116)
WX ASOS at AAO (19 nm W): 134.025 (316-636-2541)

Nearby radio navigation aids

VOR radial/distance  VOR name  Freq  Var
ICTr092/35.7WICHITA VORTAC113.8007E

Airport Services

Runway Information

Runway 3/21

Dimensions: 2415 x 60 ft. / 736 x 18 m
Surface: turf
RUNWAY 3  RUNWAY 21
Latitude: 37-38.681500N37-39.016833N
Longitude: 096-50.621833W096-50.352500W
Elevation: 1263.0 ft.1272.0 ft.
Traffic pattern: leftleft

Airport Ownership and Management from official FAA records

Ownership: Privately-owned
Owner: BRADY BARTEL
115 SE 120TH ST
AUGUSTA, KS 67010
Phone 620-229-0138
Manager: BRADY BARTEL
115 SE 120TH ST
AUGUSTA, KS 67010
Phone 620-229-0138
BRADYBARTEL@GMAIL.COM

Airport Operational Statistics

Aircraft based on the field: 1
Single engine airplanes: 1
    

Additional Remarks

PWR LINES ACRS ROAD FROM RWY 21.
TREES AT END OF RWY 03.
FOR CD CTC WICHITA APCH AT 316-350-1520.

Instrument Procedures

There are no published instrument procedures at 77KS.

Some nearby airports with instrument procedures:

KEQA - El Dorado/Capt Jack Thomas Memorial Airport (8 nm N)
3AU - Augusta Municipal Airport (11 nm W)
1K1 - Lloyd Stearman Field Airport (15 nm NW)
KBEC - Beech Factory Airport (18 nm W)
KAAO - Colonel James Jabara Airport (19 nm W)
KCEA - Cessna Aircraft Field Airport (19 nm W)
 
Loc | Ops | Rwys | IFR | FBO | Links
Com | Nav | Svcs | Stats | Notes
Aerial photo
No photo
 
Airport distance calculator
Flying to Riverbend Ranch Airport? Find the distance to fly.

From to 77KS

Sunrise and sunset
Times for 05-Aug-2021
 Local
(UTC-5)
 Zulu
(UTC)
Morning civil twilight06:0711:07
Sunrise06:3511:35
Sunset20:3101:31
Evening civil twilight21:0002:00

Current date and time
Zulu (UTC)  05-Aug-2021 15:53:26
Local (UTC-5)  05-Aug-2021 10:53:26
 
METAR
KEQA 
8nm N 
051535Z AUTO 22009KT 10SM CLR 27/17 A3008 RMK AO2
K3AU 
11nm W 
051530Z AUTO 22007KT 10SM CLR 27/15 A3008 RMK AO2
K1K1 
15nm NW 
051535Z AUTO 22006KT 10SM CLR 27/17 A3007 RMK AO2 T02670167
KBEC 
18nm W 
051535Z AUTO 22008KT 10SM CLR 26/17 A3007 RMK AO2 LTG DSNT E T02580172
KAAO 
19nm W 
051454Z AUTO 20011KT 10SM CLR 27/17 A3007 RMK AO2 SLP170 T02670172 50003
TAF
KIAB 
20nm W 
051000Z 0510/0616 18012KT 9999 SCT080 BKN180 QNH3004INS BECMG 0520/0521 17010KT 9999 FEW120 QNH2995INS BECMG 0614/0615 21015KT 9999 SKC QNH2996INS TX31/0520Z TN19/0610Z
NOTAMs
Click for the latest NOTAMs
NOTAMs are issued by the DoD/FAA and will open in a separate window not controlled by AirNav.

 

 
 

Would you like to see your business listed on this page?

 If your business provides an interesting product or service to pilots, flight crews, aircraft, or users of the Riverbend Ranch Airport, you should consider listing it here.  To start the listing process, click on the button below
 
Add a business
 

Other Pages about Riverbend Ranch Airport

Update a link
 
Copyright © AirNav, LLC. All rights reserved. Privacy Policy  Contact